sensor_id;sensor_type;location;lat;lon;timestamp;pressure;altitude;pressure_sealevel;temperature;humidity
38267;BME280;24063;51.794;19.578;2023-02-21T00:01:00;97335.30;;;6.10;100.00
38267;BME280;24063;51.794;19.578;2023-02-21T00:02:21;97334.11;;;6.10;100.00
38267;BME280;24063;51.794;19.578;2023-02-21T00:03:41;97329.39;;;6.10;100.00
38267;BME280;24063;51.794;19.578;2023-02-21T00:05:02;97324.41;;;6.09;100.00
38267;BME280;24063;51.794;19.578;2023-02-21T00:06:23;97321.18;;;6.11;100.00
38267;BME280;24063;51.794;19.578;2023-02-21T00:07:44;97318.21;;;6.15;100.00
38267;BME280;24063;51.794;19.578;2023-02-21T00:09:04;97322.06;;;6.17;100.00
38267;BME280;24063;51.794;19.578;2023-02-21T00:10:25;97314.70;;;6.18;100.00
38267;BME280;24063;51.794;19.578;2023-02-21T00:11:46;97318.19;;;6.18;100.00
38267;BME280;24063;51.794;19.578;2023-02-21T00:13:08;97320.55;;;6.17;100.00
38267;BME280;24063;51.794;19.578;2023-02-21T00:14:29;97314.98;;;6.18;100.00
38267;BME280;24063;51.794;19.578;2023-02-21T00:15:50;97318.23;;;6.20;100.00
38267;BME280;24063;51.794;19.578;2023-02-21T00:17:11;97309.54;;;6.21;100.00
38267;BME280;24063;51.794;19.578;2023-02-21T00:18:35;97310.64;;;6.22;100.00
38267;BME280;24063;51.794;19.578;2023-02-21T00:19:55;97312.35;;;6.22;100.00
38267;BME280;24063;51.794;19.578;2023-02-21T00:21:19;97311.52;;;6.21;100.00
38267;BME280;24063;51.794;19.578;2023-02-21T00:22:40;97315.21;;;6.22;100.00
38267;BME280;24063;51.794;19.578;2023-02-21T00:24:00;97315.13;;;6.20;100.00
38267;BME280;24063;51.794;19.578;2023-02-21T00:25:21;97311.44;;;6.17;100.00
38267;BME280;24063;51.794;19.578;2023-02-21T00:26:42;97312.38;;;6.12;100.00
38267;BME280;24063;51.794;19.578;2023-02-21T00:28:03;97297.81;;;6.08;100.00
38267;BME280;24063;51.794;19.578;2023-02-21T00:29:23;97298.14;;;6.06;100.00
38267;BME280;24063;51.794;19.578;2023-02-21T00:30:44;97300.88;;;6.04;100.00
38267;BME280;24063;51.794;19.578;2023-02-21T00:32:05;97291.66;;;6.04;100.00
38267;BME280;24063;51.794;19.578;2023-02-21T00:33:25;97292.73;;;6.04;100.00
38267;BME280;24063;51.794;19.578;2023-02-21T00:34:46;97289.08;;;6.04;100.00
38267;BME280;24063;51.794;19.578;2023-02-21T00:36:07;97283.71;;;6.05;100.00
38267;BME280;24063;51.794;19.578;2023-02-21T00:37:28;97281.61;;;6.06;100.00
38267;BME280;24063;51.794;19.578;2023-02-21T00:38:49;97284.58;;;6.07;100.00
38267;BME280;24063;51.794;19.578;2023-02-21T00:40:11;97270.52;;;6.08;100.00
38267;BME280;24063;51.794;19.578;2023-02-21T00:41:32;97280.34;;;6.13;100.00
38267;BME280;24063;51.794;19.578;2023-02-21T00:42:53;97281.63;;;6.13;100.00
38267;BME280;24063;51.794;19.578;2023-02-21T00:44:14;97277.58;;;6.17;100.00
38267;BME280;24063;51.794;19.578;2023-02-21T00:45:35;97277.39;;;6.13;100.00
38267;BME280;24063;51.794;19.578;2023-02-21T00:46:55;97280.29;;;6.14;100.00
38267;BME280;24063;51.794;19.578;2023-02-21T00:48:20;97277.70;;;6.14;100.00
38267;BME280;24063;51.794;19.578;2023-02-21T00:49:40;97275.77;;;6.16;100.00
38267;BME280;24063;51.794;19.578;2023-02-21T00:51:01;97273.08;;;6.17;100.00
38267;BME280;24063;51.794;19.578;2023-02-21T00:52:22;97267.88;;;6.17;100.00
38267;BME280;24063;51.794;19.578;2023-02-21T00:53:43;97270.67;;;6.17;100.00
38267;BME280;24063;51.794;19.578;2023-02-21T00:55:04;97271.10;;;6.16;100.00
38267;BME280;24063;51.794;19.578;2023-02-21T00:56:24;97265.57;;;6.15;100.00
38267;BME280;24063;51.794;19.578;2023-02-21T00:57:45;97264.60;;;6.16;100.00
38267;BME280;24063;51.794;19.578;2023-02-21T00:59:06;97262.24;;;6.16;100.00
38267;BME280;24063;51.794;19.578;2023-02-21T01:00:27;97265.31;;;6.15;100.00
38267;BME280;24063;51.794;19.578;2023-02-21T01:01:47;97263.55;;;6.12;100.00
38267;BME280;24063;51.794;19.578;2023-02-21T01:03:09;97266.41;;;6.09;100.00
38267;BME280;24063;51.794;19.578;2023-02-21T01:04:30;97262.63;;;6.07;100.00
38267;BME280;24063;51.794;19.578;2023-02-21T01:05:52;97258.12;;;6.07;100.00
38267;BME280;24063;51.794;19.578;2023-02-21T01:07:13;97267.57;;;6.06;100.00
38267;BME280;24063;51.794;19.578;2023-02-21T01:08:34;97255.66;;;6.05;100.00
38267;BME280;24063;51.794;19.578;2023-02-21T01:09:54;97262.41;;;6.06;100.00
38267;BME280;24063;51.794;19.578;2023-02-21T01:11:18;97252.27;;;6.06;100.00
38267;BME280;24063;51.794;19.578;2023-02-21T01:12:39;97250.50;;;6.07;100.00
38267;BME280;24063;51.794;19.578;2023-02-21T01:14:00;97247.66;;;6.06;100.00
38267;BME280;24063;51.794;19.578;2023-02-21T01:15:20;97245.94;;;6.05;100.00
38267;BME280;24063;51.794;19.578;2023-02-21T01:16:41;97243.80;;;6.06;100.00
38267;BME280;24063;51.794;19.578;2023-02-21T01:18:13;97243.95;;;6.09;100.00
38267;BME280;24063;51.794;19.578;2023-02-21T01:19:36;97245.27;;;6.09;100.00
38267;BME280;24063;51.794;19.578;2023-02-21T01:20:57;97241.77;;;6.11;100.00
38267;BME280;24063;51.794;19.578;2023-02-21T01:22:18;97253.98;;;6.09;100.00
38267;BME280;24063;51.794;19.578;2023-02-21T01:23:39;97260.85;;;6.08;100.00
38267;BME280;24063;51.794;19.578;2023-02-21T01:24:59;97233.63;;;6.10;100.00
38267;BME280;24063;51.794;19.578;2023-02-21T01:26:20;97243.61;;;6.12;100.00
38267;BME280;24063;51.794;19.578;2023-02-21T01:27:41;97244.73;;;6.11;100.00
38267;BME280;24063;51.794;19.578;2023-02-21T01:29:02;97231.05;;;6.11;100.00
38267;BME280;24063;51.794;19.578;2023-02-21T01:30:22;97251.01;;;6.10;100.00
38267;BME280;24063;51.794;19.578;2023-02-21T01:31:43;97228.73;;;6.12;100.00
38267;BME280;24063;51.794;19.578;2023-02-21T01:33:04;97232.58;;;6.15;100.00
38267;BME280;24063;51.794;19.578;2023-02-21T01:34:25;97224.48;;;6.14;100.00
38267;BME280;24063;51.794;19.578;2023-02-21T01:35:45;97228.03;;;6.14;100.00
38267;BME280;24063;51.794;19.578;2023-02-21T01:37:06;97229.53;;;6.14;100.00
38267;BME280;24063;51.794;19.578;2023-02-21T01:38:26;97223.40;;;6.16;100.00
38267;BME280;24063;51.794;19.578;2023-02-21T01:39:47;97224.70;;;6.20;100.00
38267;BME280;24063;51.794;19.578;2023-02-21T01:41:08;97224.56;;;6.23;100.00
38267;BME280;24063;51.794;19.578;2023-02-21T01:42:28;97222.47;;;6.25;100.00
38267;BME280;24063;51.794;19.578;2023-02-21T01:43:58;97222.05;;;6.24;100.00
38267;BME280;24063;51.794;19.578;2023-02-21T01:46:42;97226.34;;;6.23;100.00
38267;BME280;24063;51.794;19.578;2023-02-21T01:48:02;97231.23;;;6.23;100.00
38267;BME280;24063;51.794;19.578;2023-02-21T01:49:23;97233.63;;;6.23;100.00
38267;BME280;24063;51.794;19.578;2023-02-21T01:50:45;97231.81;;;6.23;100.00
38267;BME280;24063;51.794;19.578;2023-02-21T01:52:06;97231.65;;;6.23;100.00
38267;BME280;24063;51.794;19.578;2023-02-21T01:53:27;97227.41;;;6.24;100.00
38267;BME280;24063;51.794;19.578;2023-02-21T01:54:51;97232.88;;;6.24;100.00
38267;BME280;24063;51.794;19.578;2023-02-21T01:56:12;97226.91;;;6.26;100.00
38267;BME280;24063;51.794;19.578;2023-02-21T01:57:34;97224.45;;;6.24;100.00
38267;BME280;24063;51.794;19.578;2023-02-21T01:58:59;97225.43;;;6.24;100.00
38267;BME280;24063;51.794;19.578;2023-02-21T02:00:21;97229.82;;;6.24;100.00
38267;BME280;24063;51.794;19.578;2023-02-21T02:01:51;97226.11;;;6.26;100.00
38267;BME280;24063;51.794;19.578;2023-02-21T02:03:15;97222.54;;;6.28;100.00
38267;BME280;24063;51.794;19.578;2023-02-21T02:04:37;97221.63;;;6.29;100.00
38267;BME280;24063;51.794;19.578;2023-02-21T02:06:11;97221.14;;;6.30;100.00
38267;BME280;24063;51.794;19.578;2023-02-21T02:07:36;97226.27;;;6.24;100.00
38267;BME280;24063;51.794;19.578;2023-02-21T02:08:57;97216.55;;;6.25;100.00
38267;BME280;24063;51.794;19.578;2023-02-21T02:10:18;97218.39;;;6.23;100.00
38267;BME280;24063;51.794;19.578;2023-02-21T02:12:13;97225.42;;;6.23;100.00
38267;BME280;24063;51.794;19.578;2023-02-21T02:13:55;97226.29;;;6.22;100.00
38267;BME280;24063;51.794;19.578;2023-02-21T02:15:34;97222.58;;;6.23;100.00
38267;BME280;24063;51.794;19.578;2023-02-21T02:17:39;97215.98;;;6.23;100.00
38267;BME280;24063;51.794;19.578;2023-02-21T02:18:28;97208.33;;;6.22;100.00
38267;BME280;24063;51.794;19.578;2023-02-21T02:24:35;97213.17;;;6.20;100.00
38267;BME280;24063;51.794;19.578;2023-02-21T02:26:10;97209.75;;;6.18;100.00
38267;BME280;24063;51.794;19.578;2023-02-21T02:35:30;97215.02;;;6.22;100.00
38267;BME280;24063;51.794;19.578;2023-02-21T02:37:01;97212.13;;;6.21;100.00
38267;BME280;24063;51.794;19.578;2023-02-21T02:38:17;97221.90;;;6.22;100.00
38267;BME280;24063;51.794;19.578;2023-02-21T02:39:37;97219.38;;;6.22;100.00
38267;BME280;24063;51.794;19.578;2023-02-21T02:40:58;97218.37;;;6.21;100.00
38267;BME280;24063;51.794;19.578;2023-02-21T02:43:50;97223.63;;;6.20;100.00
38267;BME280;24063;51.794;19.578;2023-02-21T02:45:10;97223.05;;;6.20;100.00
38267;BME280;24063;51.794;19.578;2023-02-21T02:46:36;97227.44;;;6.20;100.00
38267;BME280;24063;51.794;19.578;2023-02-21T02:47:44;97229.10;;;6.21;100.00
38267;BME280;24063;51.794;19.578;2023-02-21T02:49:06;97229.20;;;6.21;100.00
38267;BME280;24063;51.794;19.578;2023-02-21T02:50:11;97223.98;;;6.24;100.00
38267;BME280;24063;51.794;19.578;2023-02-21T02:51:15;97227.46;;;6.25;100.00
38267;BME280;24063;51.794;19.578;2023-02-21T02:52:18;97228.64;;;6.25;100.00
38267;BME280;24063;51.794;19.578;2023-02-21T02:53:25;97227.94;;;6.25;100.00
38267;BME280;24063;51.794;19.578;2023-02-21T02:54:30;97226.88;;;6.23;100.00
38267;BME280;24063;51.794;19.578;2023-02-21T02:56:50;97228.86;;;6.24;100.00
38267;BME280;24063;51.794;19.578;2023-02-21T02:57:52;97230.83;;;6.25;100.00
38267;BME280;24063;51.794;19.578;2023-02-21T02:59:03;97235.13;;;6.25;100.00
38267;BME280;24063;51.794;19.578;2023-02-21T03:00:08;97234.92;;;6.24;100.00
38267;BME280;24063;51.794;19.578;2023-02-21T03:06:56;97238.33;;;6.27;100.00
38267;BME280;24063;51.794;19.578;2023-02-21T03:11:19;97245.21;;;6.32;100.00
38267;BME280;24063;51.794;19.578;2023-02-21T03:12:53;97239.55;;;6.35;100.00
38267;BME280;24063;51.794;19.578;2023-02-21T03:14:15;97236.94;;;6.32;100.00
38267;BME280;24063;51.794;19.578;2023-02-21T03:15:24;97236.31;;;6.30;100.00
38267;BME280;24063;51.794;19.578;2023-02-21T03:16:35;97237.59;;;6.31;100.00
38267;BME280;24063;51.794;19.578;2023-02-21T03:17:45;97237.65;;;6.32;100.00
38267;BME280;24063;51.794;19.578;2023-02-21T03:19:06;97236.41;;;6.32;100.00
38267;BME280;24063;51.794;19.578;2023-02-21T03:20:12;97236.84;;;6.32;100.00
38267;BME280;24063;51.794;19.578;2023-02-21T03:21:20;97238.71;;;6.33;100.00
38267;BME280;24063;51.794;19.578;2023-02-21T03:22:27;97233.02;;;6.32;100.00
38267;BME280;24063;51.794;19.578;2023-02-21T03:23:34;97233.94;;;6.33;100.00
38267;BME280;24063;51.794;19.578;2023-02-21T03:24:41;97241.23;;;6.35;100.00
38267;BME280;24063;51.794;19.578;2023-02-21T03:25:47;97242.40;;;6.35;100.00
38267;BME280;24063;51.794;19.578;2023-02-21T03:26:58;97244.11;;;6.36;100.00
38267;BME280;24063;51.794;19.578;2023-02-21T03:28:21;97240.70;;;6.39;100.00
38267;BME280;24063;51.794;19.578;2023-02-21T03:29:24;97240.27;;;6.40;100.00
38267;BME280;24063;51.794;19.578;2023-02-21T03:30:28;97242.84;;;6.40;100.00
38267;BME280;24063;51.794;19.578;2023-02-21T03:31:39;97238.02;;;6.39;100.00
38267;BME280;24063;51.794;19.578;2023-02-21T03:32:48;97232.25;;;6.36;100.00
38267;BME280;24063;51.794;19.578;2023-02-21T03:33:52;97241.37;;;6.36;100.00
38267;BME280;24063;51.794;19.578;2023-02-21T03:34:55;97240.36;;;6.35;100.00
38267;BME280;24063;51.794;19.578;2023-02-21T03:35:59;97238.95;;;6.35;100.00
38267;BME280;24063;51.794;19.578;2023-02-21T03:37:04;97237.30;;;6.36;100.00
38267;BME280;24063;51.794;19.578;2023-02-21T03:38:06;97236.60;;;6.35;100.00
38267;BME280;24063;51.794;19.578;2023-02-21T03:39:08;97241.16;;;6.36;100.00
38267;BME280;24063;51.794;19.578;2023-02-21T03:40:14;97244.70;;;6.36;100.00
38267;BME280;24063;51.794;19.578;2023-02-21T03:41:20;97238.14;;;6.36;100.00
38267;BME280;24063;51.794;19.578;2023-02-21T03:42:22;97235.73;;;6.37;100.00
38267;BME280;24063;51.794;19.578;2023-02-21T03:43:24;97233.57;;;6.39;100.00
38267;BME280;24063;51.794;19.578;2023-02-21T03:44:30;97231.80;;;6.40;100.00
38267;BME280;24063;51.794;19.578;2023-02-21T03:45:33;97231.78;;;6.40;100.00
38267;BME280;24063;51.794;19.578;2023-02-21T03:46:39;97228.52;;;6.39;100.00
38267;BME280;24063;51.794;19.578;2023-02-21T03:47:42;97232.06;;;6.39;100.00
38267;BME280;24063;51.794;19.578;2023-02-21T03:48:44;97233.67;;;6.35;100.00
38267;BME280;24063;51.794;19.578;2023-02-21T03:49:50;97235.18;;;6.32;100.00
38267;BME280;24063;51.794;19.578;2023-02-21T03:50:52;97224.36;;;6.29;100.00
38267;BME280;24063;51.794;19.578;2023-02-21T03:51:54;97223.26;;;6.26;100.00
38267;BME280;24063;51.794;19.578;2023-02-21T03:52:57;97219.09;;;6.23;100.00
38267;BME280;24063;51.794;19.578;2023-02-21T03:53:58;97222.00;;;6.22;100.00
38267;BME280;24063;51.794;19.578;2023-02-21T03:55:08;97217.03;;;6.20;100.00
38267;BME280;24063;51.794;19.578;2023-02-21T03:56:10;97218.33;;;6.19;100.00
38267;BME280;24063;51.794;19.578;2023-02-21T03:57:31;97218.08;;;6.16;100.00
38267;BME280;24063;51.794;19.578;2023-02-21T03:58:33;97213.84;;;6.17;100.00
38267;BME280;24063;51.794;19.578;2023-02-21T03:59:37;97218.46;;;6.16;100.00
38267;BME280;24063;51.794;19.578;2023-02-21T04:00:39;97223.02;;;6.19;100.00
38267;BME280;24063;51.794;19.578;2023-02-21T04:01:41;97214.03;;;6.19;100.00
38267;BME280;24063;51.794;19.578;2023-02-21T04:02:43;97215.96;;;6.20;100.00
38267;BME280;24063;51.794;19.578;2023-02-21T04:03:55;97211.70;;;6.22;100.00
38267;BME280;24063;51.794;19.578;2023-02-21T04:04:57;97218.80;;;6.19;100.00
38267;BME280;24063;51.794;19.578;2023-02-21T04:06:00;97212.02;;;6.21;100.00
38267;BME280;24063;51.794;19.578;2023-02-21T04:07:05;97211.50;;;6.22;100.00
38267;BME280;24063;51.794;19.578;2023-02-21T04:08:08;97212.23;;;6.24;100.00
38267;BME280;24063;51.794;19.578;2023-02-21T04:09:12;97208.16;;;6.24;100.00
38267;BME280;24063;51.794;19.578;2023-02-21T04:10:14;97211.31;;;6.23;100.00
38267;BME280;24063;51.794;19.578;2023-02-21T04:11:19;97211.69;;;6.24;100.00
38267;BME280;24063;51.794;19.578;2023-02-21T04:12:22;97206.81;;;6.24;100.00
38267;BME280;24063;51.794;19.578;2023-02-21T04:13:24;97216.03;;;6.26;100.00
38267;BME280;24063;51.794;19.578;2023-02-21T04:14:27;97213.77;;;6.27;100.00
38267;BME280;24063;51.794;19.578;2023-02-21T04:15:29;97214.45;;;6.27;100.00
38267;BME280;24063;51.794;19.578;2023-02-21T04:16:31;97229.70;;;6.26;100.00
38267;BME280;24063;51.794;19.578;2023-02-21T04:17:33;97230.39;;;6.28;100.00
38267;BME280;24063;51.794;19.578;2023-02-21T04:18:36;97236.32;;;6.30;100.00
38267;BME280;24063;51.794;19.578;2023-02-21T04:19:40;97238.88;;;6.33;100.00
38267;BME280;24063;51.794;19.578;2023-02-21T04:20:42;97246.34;;;6.33;100.00
38267;BME280;24063;51.794;19.578;2023-02-21T04:21:48;97242.63;;;6.33;100.00
38267;BME280;24063;51.794;19.578;2023-02-21T04:22:50;97235.65;;;6.27;100.00
38267;BME280;24063;51.794;19.578;2023-02-21T04:24:04;97226.77;;;6.09;100.00
38267;BME280;24063;51.794;19.578;2023-02-21T04:25:08;97228.67;;;5.96;100.00
38267;BME280;24063;51.794;19.578;2023-02-21T04:26:15;97226.41;;;5.87;100.00
38267;BME280;24063;51.794;19.578;2023-02-21T04:27:22;97226.67;;;5.81;100.00
38267;BME280;24063;51.794;19.578;2023-02-21T04:28:28;97218.21;;;5.76;100.00
38267;BME280;24063;51.794;19.578;2023-02-21T04:29:30;97225.86;;;5.72;100.00
38267;BME280;24063;51.794;19.578;2023-02-21T04:30:32;97224.20;;;5.69;100.00
38267;BME280;24063;51.794;19.578;2023-02-21T04:31:34;97228.35;;;5.68;100.00
38267;BME280;24063;51.794;19.578;2023-02-21T04:32:41;97236.83;;;5.67;100.00
38267;BME280;24063;51.794;19.578;2023-02-21T04:33:47;97234.48;;;5.66;100.00
38267;BME280;24063;51.794;19.578;2023-02-21T04:34:58;97223.66;;;5.61;100.00
38267;BME280;24063;51.794;19.578;2023-02-21T04:36:00;97225.84;;;5.56;100.00
38267;BME280;24063;51.794;19.578;2023-02-21T04:37:11;97221.75;;;5.49;100.00
38267;BME280;24063;51.794;19.578;2023-02-21T04:38:13;97224.20;;;5.40;100.00
38267;BME280;24063;51.794;19.578;2023-02-21T04:39:16;97227.23;;;5.33;100.00
38267;BME280;24063;51.794;19.578;2023-02-21T04:40:17;97222.87;;;5.27;100.00
38267;BME280;24063;51.794;19.578;2023-02-21T04:41:20;97231.41;;;5.23;100.00
38267;BME280;24063;51.794;19.578;2023-02-21T04:42:22;97230.27;;;5.22;100.00
38267;BME280;24063;51.794;19.578;2023-02-21T04:43:24;97234.77;;;5.23;100.00
38267;BME280;24063;51.794;19.578;2023-02-21T04:44:26;97240.98;;;5.23;100.00
38267;BME280;24063;51.794;19.578;2023-02-21T04:45:28;97241.09;;;5.25;100.00
38267;BME280;24063;51.794;19.578;2023-02-21T04:46:30;97233.58;;;5.27;100.00
38267;BME280;24063;51.794;19.578;2023-02-21T04:47:32;97238.23;;;5.29;100.00
38267;BME280;24063;51.794;19.578;2023-02-21T04:48:34;97235.11;;;5.32;100.00
38267;BME280;24063;51.794;19.578;2023-02-21T04:49:36;97233.61;;;5.34;100.00
38267;BME280;24063;51.794;19.578;2023-02-21T04:50:37;97238.65;;;5.35;100.00
38267;BME280;24063;51.794;19.578;2023-02-21T04:51:40;97238.90;;;5.35;100.00
38267;BME280;24063;51.794;19.578;2023-02-21T04:52:42;97237.99;;;5.36;100.00
38267;BME280;24063;51.794;19.578;2023-02-21T04:53:46;97230.77;;;5.36;100.00
38267;BME280;24063;51.794;19.578;2023-02-21T04:54:49;97235.75;;;5.37;100.00
38267;BME280;24063;51.794;19.578;2023-02-21T04:55:50;97230.11;;;5.38;100.00
38267;BME280;24063;51.794;19.578;2023-02-21T04:56:52;97239.27;;;5.37;100.00
38267;BME280;24063;51.794;19.578;2023-02-21T04:57:54;97236.75;;;5.37;100.00
38267;BME280;24063;51.794;19.578;2023-02-21T04:58:56;97240.34;;;5.37;100.00
38267;BME280;24063;51.794;19.578;2023-02-21T04:59:59;97240.29;;;5.38;100.00
38267;BME280;24063;51.794;19.578;2023-02-21T05:01:01;97241.14;;;5.38;100.00
38267;BME280;24063;51.794;19.578;2023-02-21T05:02:03;97242.85;;;5.39;100.00
38267;BME280;24063;51.794;19.578;2023-02-21T05:03:08;97242.78;;;5.41;100.00
38267;BME280;24063;51.794;19.578;2023-02-21T05:04:10;97238.01;;;5.43;100.00
38267;BME280;24063;51.794;19.578;2023-02-21T05:05:12;97237.84;;;5.43;100.00
38267;BME280;24063;51.794;19.578;2023-02-21T05:07:14;97228.82;;;5.40;100.00
38267;BME280;24063;51.794;19.578;2023-02-21T05:08:16;97223.29;;;5.39;100.00
38267;BME280;24063;51.794;19.578;2023-02-21T05:09:21;97229.73;;;5.38;100.00
38267;BME280;24063;51.794;19.578;2023-02-21T05:10:23;97228.83;;;5.38;100.00
38267;BME280;24063;51.794;19.578;2023-02-21T05:11:37;97229.37;;;5.37;100.00
38267;BME280;24063;51.794;19.578;2023-02-21T05:12:42;97236.86;;;5.37;100.00
38267;BME280;24063;51.794;19.578;2023-02-21T05:13:45;97236.34;;;5.36;100.00
38267;BME280;24063;51.794;19.578;2023-02-21T05:14:47;97241.85;;;5.36;100.00
38267;BME280;24063;51.794;19.578;2023-02-21T05:15:49;97242.07;;;5.36;100.00
38267;BME280;24063;51.794;19.578;2023-02-21T05:16:50;97245.45;;;5.35;100.00
38267;BME280;24063;51.794;19.578;2023-02-21T05:17:52;97243.14;;;5.35;100.00
38267;BME280;24063;51.794;19.578;2023-02-21T05:18:55;97241.52;;;5.35;100.00
38267;BME280;24063;51.794;19.578;2023-02-21T05:19:57;97233.88;;;5.34;100.00
38267;BME280;24063;51.794;19.578;2023-02-21T05:20:59;97234.52;;;5.33;100.00
38267;BME280;24063;51.794;19.578;2023-02-21T05:22:04;97248.19;;;5.33;100.00
38267;BME280;24063;51.794;19.578;2023-02-21T05:23:08;97255.41;;;5.35;100.00
38267;BME280;24063;51.794;19.578;2023-02-21T05:24:14;97257.93;;;5.35;100.00
38267;BME280;24063;51.794;19.578;2023-02-21T05:25:20;97255.57;;;5.35;100.00
38267;BME280;24063;51.794;19.578;2023-02-21T05:26:27;97265.05;;;5.36;100.00
38267;BME280;24063;51.794;19.578;2023-02-21T05:27:33;97259.59;;;5.33;100.00
38267;BME280;24063;51.794;19.578;2023-02-21T05:28:37;97263.03;;;5.32;100.00
38267;BME280;24063;51.794;19.578;2023-02-21T05:29:39;97257.20;;;5.33;100.00
38267;BME280;24063;51.794;19.578;2023-02-21T05:30:40;97259.02;;;5.32;100.00
38267;BME280;24063;51.794;19.578;2023-02-21T05:31:42;97255.75;;;5.31;100.00
38267;BME280;24063;51.794;19.578;2023-02-21T05:32:45;97261.05;;;5.30;100.00
38267;BME280;24063;51.794;19.578;2023-02-21T05:33:47;97265.52;;;5.29;100.00
38267;BME280;24063;51.794;19.578;2023-02-21T05:34:49;97259.30;;;5.29;100.00
38267;BME280;24063;51.794;19.578;2023-02-21T05:35:51;97258.17;;;5.30;100.00
38267;BME280;24063;51.794;19.578;2023-02-21T05:36:53;97263.80;;;5.29;100.00
38267;BME280;24063;51.794;19.578;2023-02-21T05:37:55;97257.69;;;5.27;100.00
38267;BME280;24063;51.794;19.578;2023-02-21T05:38:56;97257.86;;;5.27;100.00
38267;BME280;24063;51.794;19.578;2023-02-21T05:39:58;97271.56;;;5.32;100.00
38267;BME280;24063;51.794;19.578;2023-02-21T05:41:00;97267.21;;;5.33;100.00
38267;BME280;24063;51.794;19.578;2023-02-21T05:42:02;97274.89;;;5.33;100.00
38267;BME280;24063;51.794;19.578;2023-02-21T05:43:04;97274.66;;;5.34;100.00
38267;BME280;24063;51.794;19.578;2023-02-21T05:44:06;97271.29;;;5.31;100.00
38267;BME280;24063;51.794;19.578;2023-02-21T05:45:09;97266.36;;;5.28;100.00
38267;BME280;24063;51.794;19.578;2023-02-21T05:46:32;97266.96;;;5.28;100.00
38267;BME280;24063;51.794;19.578;2023-02-21T05:47:35;97268.03;;;5.27;100.00
38267;BME280;24063;51.794;19.578;2023-02-21T05:48:37;97262.04;;;5.27;100.00
38267;BME280;24063;51.794;19.578;2023-02-21T05:49:40;97269.06;;;5.25;100.00
38267;BME280;24063;51.794;19.578;2023-02-21T05:50:41;97270.23;;;5.25;100.00
38267;BME280;24063;51.794;19.578;2023-02-21T05:51:45;97272.98;;;5.23;100.00
38267;BME280;24063;51.794;19.578;2023-02-21T05:52:47;97273.73;;;5.23;100.00
38267;BME280;24063;51.794;19.578;2023-02-21T05:53:50;97275.98;;;5.23;100.00
38267;BME280;24063;51.794;19.578;2023-02-21T05:54:52;97275.02;;;5.23;100.00
38267;BME280;24063;51.794;19.578;2023-02-21T05:55:54;97282.77;;;5.24;100.00
38267;BME280;24063;51.794;19.578;2023-02-21T05:56:55;97288.34;;;5.23;100.00
38267;BME280;24063;51.794;19.578;2023-02-21T05:57:57;97294.15;;;5.22;100.00
38267;BME280;24063;51.794;19.578;2023-02-21T05:58:59;97290.56;;;5.20;100.00
38267;BME280;24063;51.794;19.578;2023-02-21T06:00:01;97287.36;;;5.16;100.00
38267;BME280;24063;51.794;19.578;2023-02-21T06:01:12;97290.95;;;5.14;100.00
38267;BME280;24063;51.794;19.578;2023-02-21T06:02:15;97289.14;;;5.12;100.00
38267;BME280;24063;51.794;19.578;2023-02-21T06:03:17;97292.14;;;5.10;100.00
38267;BME280;24063;51.794;19.578;2023-02-21T06:04:19;97289.46;;;5.08;100.00
38267;BME280;24063;51.794;19.578;2023-02-21T06:05:22;97294.13;;;5.09;100.00
38267;BME280;24063;51.794;19.578;2023-02-21T06:06:24;97296.86;;;5.07;100.00
38267;BME280;24063;51.794;19.578;2023-02-21T06:07:26;97302.42;;;5.09;100.00
38267;BME280;24063;51.794;19.578;2023-02-21T06:08:29;97296.48;;;5.10;100.00
38267;BME280;24063;51.794;19.578;2023-02-21T06:09:30;97293.20;;;5.10;100.00
38267;BME280;24063;51.794;19.578;2023-02-21T06:10:32;97295.20;;;5.09;100.00
38267;BME280;24063;51.794;19.578;2023-02-21T06:11:37;97294.83;;;5.08;100.00
38267;BME280;24063;51.794;19.578;2023-02-21T06:12:39;97293.91;;;5.09;100.00
38267;BME280;24063;51.794;19.578;2023-02-21T06:13:41;97301.25;;;5.06;100.00
38267;BME280;24063;51.794;19.578;2023-02-21T06:14:43;97294.84;;;5.03;100.00
38267;BME280;24063;51.794;19.578;2023-02-21T06:15:45;97307.90;;;5.03;100.00
38267;BME280;24063;51.794;19.578;2023-02-21T06:16:48;97307.58;;;5.01;100.00
38267;BME280;24063;51.794;19.578;2023-02-21T06:17:49;97311.86;;;5.01;100.00
38267;BME280;24063;51.794;19.578;2023-02-21T06:18:53;97305.66;;;5.01;100.00
38267;BME280;24063;51.794;19.578;2023-02-21T06:19:55;97306.52;;;5.01;100.00
38267;BME280;24063;51.794;19.578;2023-02-21T06:20:58;97314.70;;;5.01;100.00
38267;BME280;24063;51.794;19.578;2023-02-21T06:21:59;97318.02;;;5.03;100.00
38267;BME280;24063;51.794;19.578;2023-02-21T06:23:01;97323.64;;;5.03;100.00
38267;BME280;24063;51.794;19.578;2023-02-21T06:24:04;97327.34;;;5.04;100.00
38267;BME280;24063;51.794;19.578;2023-02-21T06:25:06;97329.33;;;5.04;100.00
38267;BME280;24063;51.794;19.578;2023-02-21T06:26:09;97335.64;;;5.04;100.00
38267;BME280;24063;51.794;19.578;2023-02-21T06:27:11;97336.83;;;5.03;100.00
38267;BME280;24063;51.794;19.578;2023-02-21T06:28:12;97337.95;;;5.00;100.00
38267;BME280;24063;51.794;19.578;2023-02-21T06:29:14;97339.40;;;5.00;100.00
38267;BME280;24063;51.794;19.578;2023-02-21T06:30:16;97342.51;;;5.01;100.00
38267;BME280;24063;51.794;19.578;2023-02-21T06:31:19;97346.52;;;5.00;100.00
38267;BME280;24063;51.794;19.578;2023-02-21T06:32:21;97351.39;;;4.99;100.00
38267;BME280;24063;51.794;19.578;2023-02-21T06:33:24;97348.77;;;5.01;100.00
38267;BME280;24063;51.794;19.578;2023-02-21T06:34:27;97354.81;;;5.04;100.00
38267;BME280;24063;51.794;19.578;2023-02-21T06:35:28;97357.05;;;5.07;100.00
38267;BME280;24063;51.794;19.578;2023-02-21T06:36:30;97357.59;;;5.09;100.00